sensor_id;sensor_type;location;lat;lon;timestamp;P1;durP1;ratioP1;P2;durP2;ratioP2
49175;SDS011;35012;47.200;9.748;2023-08-30T00:00:14;3.20;;;0.80;;
49175;SDS011;35012;47.200;9.748;2023-08-30T00:02:42;2.43;;;0.70;;
49175;SDS011;35012;47.200;9.748;2023-08-30T00:05:08;1.67;;;0.80;;
49175;SDS011;35012;47.200;9.748;2023-08-30T00:07:34;1.40;;;0.73;;
49175;SDS011;35012;47.200;9.748;2023-08-30T00:09:59;3.27;;;0.70;;
49175;SDS011;35012;47.200;9.748;2023-08-30T00:12:25;0.70;;;0.70;;
49175;SDS011;35012;47.200;9.748;2023-08-30T00:14:51;1.67;;;0.63;;
49175;SDS011;35012;47.200;9.748;2023-08-30T00:17:17;0.80;;;0.80;;
49175;SDS011;35012;47.200;9.748;2023-08-30T00:19:42;1.27;;;0.90;;
49175;SDS011;35012;47.200;9.748;2023-08-30T00:22:08;1.30;;;1.20;;
49175;SDS011;35012;47.200;9.748;2023-08-30T00:24:33;3.77;;;1.00;;
49175;SDS011;35012;47.200;9.748;2023-08-30T00:27:00;1.40;;;1.10;;
49175;SDS011;35012;47.200;9.748;2023-08-30T00:29:27;1.17;;;1.07;;
49175;SDS011;35012;47.200;9.748;2023-08-30T00:31:53;1.23;;;1.13;;
49175;SDS011;35012;47.200;9.748;2023-08-30T00:34:18;1.10;;;1.00;;
49175;SDS011;35012;47.200;9.748;2023-08-30T00:36:44;1.30;;;1.20;;
49175;SDS011;35012;47.200;9.748;2023-08-30T00:39:09;1.93;;;1.47;;
49175;SDS011;35012;47.200;9.748;2023-08-30T00:41:34;1.70;;;1.60;;
49175;SDS011;35012;47.200;9.748;2023-08-30T00:44:00;2.60;;;1.80;;
49175;SDS011;35012;47.200;9.748;2023-08-30T00:53:10;1.73;;;1.63;;
49175;SDS011;35012;47.200;9.748;2023-08-30T00:55:36;2.27;;;1.80;;
49175;SDS011;35012;47.200;9.748;2023-08-30T00:58:02;1.57;;;1.47;;
49175;SDS011;35012;47.200;9.748;2023-08-30T01:00:29;2.80;;;1.23;;
49175;SDS011;35012;47.200;9.748;2023-08-30T01:02:55;1.27;;;1.17;;
49175;SDS011;35012;47.200;9.748;2023-08-30T01:05:21;1.23;;;1.10;;
49175;SDS011;35012;47.200;9.748;2023-08-30T01:07:47;4.07;;;1.07;;
49175;SDS011;35012;47.200;9.748;2023-08-30T01:10:13;1.10;;;1.00;;
49175;SDS011;35012;47.200;9.748;2023-08-30T01:12:40;1.57;;;1.10;;
49175;SDS011;35012;47.200;9.748;2023-08-30T01:15:20;1.60;;;1.50;;
49175;SDS011;35012;47.200;9.748;2023-08-30T01:17:50;1.43;;;1.10;;
49175;SDS011;35012;47.200;9.748;2023-08-30T01:20:17;2.23;;;1.07;;
49175;SDS011;35012;47.200;9.748;2023-08-30T01:23:03;2.70;;;1.03;;
49175;SDS011;35012;47.200;9.748;2023-08-30T01:28:04;1.23;;;1.10;;
49175;SDS011;35012;47.200;9.748;2023-08-30T01:30:30;1.70;;;1.10;;
49175;SDS011;35012;47.200;9.748;2023-08-30T01:32:58;1.23;;;1.03;;
49175;SDS011;35012;47.200;9.748;2023-08-30T01:35:25;1.30;;;1.20;;
49175;SDS011;35012;47.200;9.748;2023-08-30T01:37:55;3.80;;;1.30;;
49175;SDS011;35012;47.200;9.748;2023-08-30T01:40:21;1.23;;;1.10;;
49175;SDS011;35012;47.200;9.748;2023-08-30T01:42:47;3.47;;;1.17;;
49175;SDS011;35012;47.200;9.748;2023-08-30T01:45:13;4.03;;;1.13;;
49175;SDS011;35012;47.200;9.748;2023-08-30T01:47:39;2.00;;;1.00;;
49175;SDS011;35012;47.200;9.748;2023-08-30T01:50:06;1.03;;;0.97;;
49175;SDS011;35012;47.200;9.748;2023-08-30T01:52:32;1.57;;;1.20;;
49175;SDS011;35012;47.200;9.748;2023-08-30T01:54:58;4.10;;;1.10;;
49175;SDS011;35012;47.200;9.748;2023-08-30T01:57:23;1.50;;;1.13;;
49175;SDS011;35012;47.200;9.748;2023-08-30T01:59:48;1.20;;;1.10;;
49175;SDS011;35012;47.200;9.748;2023-08-30T02:02:14;1.40;;;1.20;;
49175;SDS011;35012;47.200;9.748;2023-08-30T02:04:39;3.07;;;1.00;;
49175;SDS011;35012;47.200;9.748;2023-08-30T02:07:08;1.30;;;1.20;;
49175;SDS011;35012;47.200;9.748;2023-08-30T02:09:43;1.93;;;1.20;;
49175;SDS011;35012;47.200;9.748;2023-08-30T02:12:14;1.10;;;1.00;;
49175;SDS011;35012;47.200;9.748;2023-08-30T02:14:41;1.77;;;1.13;;
49175;SDS011;35012;47.200;9.748;2023-08-30T02:17:10;2.63;;;1.10;;
49175;SDS011;35012;47.200;9.748;2023-08-30T02:19:37;1.23;;;1.00;;
49175;SDS011;35012;47.200;9.748;2023-08-30T02:22:03;5.53;;;2.30;;
49175;SDS011;35012;47.200;9.748;2023-08-30T02:24:28;1.40;;;0.80;;
49175;SDS011;35012;47.200;9.748;2023-08-30T02:26:53;1.33;;;0.90;;
49175;SDS011;35012;47.200;9.748;2023-08-30T02:29:19;1.00;;;0.87;;
49175;SDS011;35012;47.200;9.748;2023-08-30T02:31:44;2.13;;;0.90;;
49175;SDS011;35012;47.200;9.748;2023-08-30T02:34:10;2.67;;;0.77;;
49175;SDS011;35012;47.200;9.748;2023-08-30T02:36:35;1.80;;;0.80;;
49175;SDS011;35012;47.200;9.748;2023-08-30T02:39:00;2.23;;;0.73;;
49175;SDS011;35012;47.200;9.748;2023-08-30T02:41:26;1.43;;;0.90;;
49175;SDS011;35012;47.200;9.748;2023-08-30T02:43:51;0.90;;;0.70;;
49175;SDS011;35012;47.200;9.748;2023-08-30T02:46:17;1.70;;;0.73;;
49175;SDS011;35012;47.200;9.748;2023-08-30T02:48:42;1.07;;;0.60;;
49175;SDS011;35012;47.200;9.748;2023-08-30T02:51:08;0.73;;;0.63;;
49175;SDS011;35012;47.200;9.748;2023-08-30T02:53:33;1.00;;;0.90;;
49175;SDS011;35012;47.200;9.748;2023-08-30T02:55:58;1.00;;;0.80;;
49175;SDS011;35012;47.200;9.748;2023-08-30T02:58:24;1.80;;;0.70;;
49175;SDS011;35012;47.200;9.748;2023-08-30T03:00:49;1.63;;;0.90;;
49175;SDS011;35012;47.200;9.748;2023-08-30T03:03:15;1.17;;;0.90;;
49175;SDS011;35012;47.200;9.748;2023-08-30T03:05:40;1.00;;;0.87;;
49175;SDS011;35012;47.200;9.748;2023-08-30T03:08:05;0.97;;;0.90;;
49175;SDS011;35012;47.200;9.748;2023-08-30T03:10:31;1.10;;;0.90;;
49175;SDS011;35012;47.200;9.748;2023-08-30T03:12:57;1.87;;;0.80;;
49175;SDS011;35012;47.200;9.748;2023-08-30T03:15:22;1.10;;;0.90;;
49175;SDS011;35012;47.200;9.748;2023-08-30T03:17:48;0.90;;;0.70;;
49175;SDS011;35012;47.200;9.748;2023-08-30T03:20:13;0.87;;;0.87;;
49175;SDS011;35012;47.200;9.748;2023-08-30T03:22:39;1.00;;;0.90;;
49175;SDS011;35012;47.200;9.748;2023-08-30T03:25:05;0.70;;;0.70;;
49175;SDS011;35012;47.200;9.748;2023-08-30T03:27:32;2.97;;;0.97;;
49175;SDS011;35012;47.200;9.748;2023-08-30T03:29:58;2.70;;;1.00;;
49175;SDS011;35012;47.200;9.748;2023-08-30T03:32:23;2.97;;;0.80;;
49175;SDS011;35012;47.200;9.748;2023-08-30T03:34:48;1.43;;;0.90;;
49175;SDS011;35012;47.200;9.748;2023-08-30T03:37:14;0.87;;;0.77;;
49175;SDS011;35012;47.200;9.748;2023-08-30T03:39:40;1.57;;;0.90;;
49175;SDS011;35012;47.200;9.748;2023-08-30T03:42:05;1.80;;;0.90;;
49175;SDS011;35012;47.200;9.748;2023-08-30T03:44:31;1.10;;;1.00;;
49175;SDS011;35012;47.200;9.748;2023-08-30T03:46:56;1.53;;;1.00;;
49175;SDS011;35012;47.200;9.748;2023-08-30T03:49:22;0.90;;;0.80;;
49175;SDS011;35012;47.200;9.748;2023-08-30T03:51:47;1.53;;;0.80;;
49175;SDS011;35012;47.200;9.748;2023-08-30T03:54:13;1.03;;;0.80;;
49175;SDS011;35012;47.200;9.748;2023-08-30T03:56:41;0.70;;;0.70;;
49175;SDS011;35012;47.200;9.748;2023-08-30T03:59:07;1.57;;;1.00;;
49175;SDS011;35012;47.200;9.748;2023-08-30T04:01:32;1.97;;;0.90;;
49175;SDS011;35012;47.200;9.748;2023-08-30T04:03:58;2.47;;;1.10;;
49175;SDS011;35012;47.200;9.748;2023-08-30T04:06:23;1.73;;;0.80;;
49175;SDS011;35012;47.200;9.748;2023-08-30T04:08:49;2.70;;;1.10;;
49175;SDS011;35012;47.200;9.748;2023-08-30T04:11:14;1.70;;;1.50;;
49175;SDS011;35012;47.200;9.748;2023-08-30T04:13:39;2.20;;;1.00;;
49175;SDS011;35012;47.200;9.748;2023-08-30T04:16:05;1.53;;;1.00;;
49175;SDS011;35012;47.200;9.748;2023-08-30T04:18:31;1.37;;;1.27;;
49175;SDS011;35012;47.200;9.748;2023-08-30T04:20:57;1.30;;;1.10;;
49175;SDS011;35012;47.200;9.748;2023-08-30T04:23:23;1.43;;;1.00;;
49175;SDS011;35012;47.200;9.748;2023-08-30T04:25:49;1.13;;;1.03;;
49175;SDS011;35012;47.200;9.748;2023-08-30T04:28:14;3.37;;;1.30;;
49175;SDS011;35012;47.200;9.748;2023-08-30T04:30:40;1.87;;;0.90;;
49175;SDS011;35012;47.200;9.748;2023-08-30T04:33:06;1.20;;;1.00;;
49175;SDS011;35012;47.200;9.748;2023-08-30T04:35:32;0.90;;;0.90;;
49175;SDS011;35012;47.200;9.748;2023-08-30T04:38:00;1.20;;;0.90;;
49175;SDS011;35012;47.200;9.748;2023-08-30T04:40:26;1.10;;;1.00;;
49175;SDS011;35012;47.200;9.748;2023-08-30T04:42:53;1.73;;;1.20;;
49175;SDS011;35012;47.200;9.748;2023-08-30T04:45:19;1.60;;;1.10;;
49175;SDS011;35012;47.200;9.748;2023-08-30T04:47:44;1.00;;;0.90;;
49175;SDS011;35012;47.200;9.748;2023-08-30T04:50:10;1.77;;;1.03;;
49175;SDS011;35012;47.200;9.748;2023-08-30T04:52:36;1.53;;;0.90;;
49175;SDS011;35012;47.200;9.748;2023-08-30T04:55:01;0.90;;;0.80;;
49175;SDS011;35012;47.200;9.748;2023-08-30T04:57:27;2.00;;;0.80;;
49175;SDS011;35012;47.200;9.748;2023-08-30T04:59:53;2.07;;;1.00;;
49175;SDS011;35012;47.200;9.748;2023-08-30T05:02:18;0.80;;;0.80;;
49175;SDS011;35012;47.200;9.748;2023-08-30T05:04:43;0.90;;;0.90;;
49175;SDS011;35012;47.200;9.748;2023-08-30T05:07:09;1.47;;;0.73;;
49175;SDS011;35012;47.200;9.748;2023-08-30T05:09:34;0.90;;;0.80;;
49175;SDS011;35012;47.200;9.748;2023-08-30T05:12:00;5.40;;;0.87;;
49175;SDS011;35012;47.200;9.748;2023-08-30T05:14:26;1.43;;;0.90;;
49175;SDS011;35012;47.200;9.748;2023-08-30T05:16:52;1.70;;;0.73;;
49175;SDS011;35012;47.200;9.748;2023-08-30T05:19:17;1.27;;;0.80;;
49175;SDS011;35012;47.200;9.748;2023-08-30T05:21:43;2.70;;;0.90;;
49175;SDS011;35012;47.200;9.748;2023-08-30T05:24:09;1.73;;;1.00;;
49175;SDS011;35012;47.200;9.748;2023-08-30T05:26:35;3.87;;;1.70;;
49175;SDS011;35012;47.200;9.748;2023-08-30T05:29:01;2.60;;;1.20;;
49175;SDS011;35012;47.200;9.748;2023-08-30T05:31:27;2.43;;;1.30;;
49175;SDS011;35012;47.200;9.748;2023-08-30T05:33:52;1.30;;;1.20;;
49175;SDS011;35012;47.200;9.748;2023-08-30T05:36:18;1.50;;;1.40;;
49175;SDS011;35012;47.200;9.748;2023-08-30T05:38:43;2.23;;;1.20;;
49175;SDS011;35012;47.200;9.748;2023-08-30T05:41:09;0.87;;;0.80;;
49175;SDS011;35012;47.200;9.748;2023-08-30T05:43:35;1.00;;;0.90;;
49175;SDS011;35012;47.200;9.748;2023-08-30T05:46:00;1.20;;;0.97;;
49175;SDS011;35012;47.200;9.748;2023-08-30T05:48:30;1.57;;;0.97;;
49175;SDS011;35012;47.200;9.748;2023-08-30T05:50:56;1.20;;;0.80;;
49175;SDS011;35012;47.200;9.748;2023-08-30T05:53:22;0.80;;;0.80;;
49175;SDS011;35012;47.200;9.748;2023-08-30T05:55:47;0.80;;;0.80;;
49175;SDS011;35012;47.200;9.748;2023-08-30T05:58:13;1.83;;;0.90;;
49175;SDS011;35012;47.200;9.748;2023-08-30T06:00:40;1.10;;;0.80;;
49175;SDS011;35012;47.200;9.748;2023-08-30T06:03:05;1.63;;;0.83;;
49175;SDS011;35012;47.200;9.748;2023-08-30T06:05:30;0.80;;;0.80;;
49175;SDS011;35012;47.200;9.748;2023-08-30T06:07:56;1.17;;;0.70;;
49175;SDS011;35012;47.200;9.748;2023-08-30T06:10:22;0.77;;;0.77;;
49175;SDS011;35012;47.200;9.748;2023-08-30T06:12:48;2.40;;;0.93;;
49175;SDS011;35012;47.200;9.748;2023-08-30T06:15:13;3.00;;;0.77;;
49175;SDS011;35012;47.200;9.748;2023-08-30T06:17:39;1.67;;;1.00;;
49175;SDS011;35012;47.200;9.748;2023-08-30T06:20:04;4.50;;;1.10;;
49175;SDS011;35012;47.200;9.748;2023-08-30T06:22:30;1.20;;;0.83;;
49175;SDS011;35012;47.200;9.748;2023-08-30T06:24:56;1.10;;;0.80;;
49175;SDS011;35012;47.200;9.748;2023-08-30T06:27:22;1.80;;;1.00;;
49175;SDS011;35012;47.200;9.748;2023-08-30T06:29:48;1.10;;;0.93;;
49175;SDS011;35012;47.200;9.748;2023-08-30T06:32:14;2.50;;;1.30;;
49175;SDS011;35012;47.200;9.748;2023-08-30T06:34:39;2.63;;;1.40;;
49175;SDS011;35012;47.200;9.748;2023-08-30T06:37:05;1.50;;;1.40;;
49175;SDS011;35012;47.200;9.748;2023-08-30T06:39:33;3.93;;;1.50;;
49175;SDS011;35012;47.200;9.748;2023-08-30T06:42:02;2.30;;;1.30;;
49175;SDS011;35012;47.200;9.748;2023-08-30T06:44:28;1.37;;;1.27;;
49175;SDS011;35012;47.200;9.748;2023-08-30T06:46:55;1.27;;;1.17;;
49175;SDS011;35012;47.200;9.748;2023-08-30T06:49:23;1.30;;;1.20;;
49175;SDS011;35012;47.200;9.748;2023-08-30T06:51:49;7.77;;;2.70;;
49175;SDS011;35012;47.200;9.748;2023-08-30T06:54:14;2.93;;;1.20;;
49175;SDS011;35012;47.200;9.748;2023-08-30T06:56:39;1.50;;;1.33;;
49175;SDS011;35012;47.200;9.748;2023-08-30T06:59:05;2.33;;;1.00;;
49175;SDS011;35012;47.200;9.748;2023-08-30T07:01:30;1.07;;;0.97;;
49175;SDS011;35012;47.200;9.748;2023-08-30T07:03:56;1.00;;;0.90;;
49175;SDS011;35012;47.200;9.748;2023-08-30T07:06:21;3.17;;;1.10;;
49175;SDS011;35012;47.200;9.748;2023-08-30T07:08:46;3.73;;;1.30;;
49175;SDS011;35012;47.200;9.748;2023-08-30T07:11:12;1.37;;;1.10;;
49175;SDS011;35012;47.200;9.748;2023-08-30T07:13:37;1.53;;;1.20;;
49175;SDS011;35012;47.200;9.748;2023-08-30T07:16:02;3.80;;;1.23;;
49175;SDS011;35012;47.200;9.748;2023-08-30T07:18:28;4.13;;;1.13;;
49175;SDS011;35012;47.200;9.748;2023-08-30T07:20:54;12.00;;;1.73;;
49175;SDS011;35012;47.200;9.748;2023-08-30T07:23:19;1.70;;;1.00;;
49175;SDS011;35012;47.200;9.748;2023-08-30T07:25:45;1.10;;;1.00;;
49175;SDS011;35012;47.200;9.748;2023-08-30T07:28:10;1.37;;;0.80;;
49175;SDS011;35012;47.200;9.748;2023-08-30T07:30:36;1.40;;;0.90;;
49175;SDS011;35012;47.200;9.748;2023-08-30T07:33:02;1.70;;;0.90;;
49175;SDS011;35012;47.200;9.748;2023-08-30T07:35:29;1.33;;;0.70;;
49175;SDS011;35012;47.200;9.748;2023-08-30T07:37:55;1.73;;;1.00;;
49175;SDS011;35012;47.200;9.748;2023-08-30T07:40:20;1.07;;;0.80;;
49175;SDS011;35012;47.200;9.748;2023-08-30T07:42:49;1.07;;;0.97;;
49175;SDS011;35012;47.200;9.748;2023-08-30T07:45:14;1.17;;;0.80;;
49175;SDS011;35012;47.200;9.748;2023-08-30T07:47:40;1.93;;;0.70;;
49175;SDS011;35012;47.200;9.748;2023-08-30T07:50:06;1.53;;;0.67;;
49175;SDS011;35012;47.200;9.748;2023-08-30T07:52:32;1.10;;;0.93;;
49175;SDS011;35012;47.200;9.748;2023-08-30T07:54:57;0.90;;;0.70;;
49175;SDS011;35012;47.200;9.748;2023-08-30T07:57:22;2.20;;;1.17;;
49175;SDS011;35012;47.200;9.748;2023-08-30T07:59:48;0.87;;;0.70;;
49175;SDS011;35012;47.200;9.748;2023-08-30T08:02:13;1.70;;;0.83;;
49175;SDS011;35012;47.200;9.748;2023-08-30T08:04:39;1.13;;;0.70;;
49175;SDS011;35012;47.200;9.748;2023-08-30T08:07:04;1.77;;;0.70;;
49175;SDS011;35012;47.200;9.748;2023-08-30T08:09:30;1.10;;;0.70;;
49175;SDS011;35012;47.200;9.748;2023-08-30T08:11:55;0.70;;;0.70;;
49175;SDS011;35012;47.200;9.748;2023-08-30T08:14:21;1.03;;;0.80;;
49175;SDS011;35012;47.200;9.748;2023-08-30T08:16:47;1.17;;;0.73;;
49175;SDS011;35012;47.200;9.748;2023-08-30T08:19:13;0.93;;;0.90;;
49175;SDS011;35012;47.200;9.748;2023-08-30T08:21:38;0.67;;;0.60;;
49175;SDS011;35012;47.200;9.748;2023-08-30T08:24:04;2.20;;;0.70;;
49175;SDS011;35012;47.200;9.748;2023-08-30T08:26:29;0.60;;;0.57;;
49175;SDS011;35012;47.200;9.748;2023-08-30T08:28:55;0.97;;;0.60;;
49175;SDS011;35012;47.200;9.748;2023-08-30T08:31:21;0.93;;;0.53;;
49175;SDS011;35012;47.200;9.748;2023-08-30T08:33:49;2.00;;;0.70;;
49175;SDS011;35012;47.200;9.748;2023-08-30T08:36:16;1.13;;;0.80;;
49175;SDS011;35012;47.200;9.748;2023-08-30T08:38:41;1.07;;;0.70;;
49175;SDS011;35012;47.200;9.748;2023-08-30T08:41:06;1.47;;;0.73;;
49175;SDS011;35012;47.200;9.748;2023-08-30T08:43:35;1.53;;;0.70;;
49175;SDS011;35012;47.200;9.748;2023-08-30T08:46:02;2.33;;;0.67;;
49175;SDS011;35012;47.200;9.748;2023-08-30T08:48:28;1.90;;;0.60;;
49175;SDS011;35012;47.200;9.748;2023-08-30T08:50:55;0.60;;;0.60;;
49175;SDS011;35012;47.200;9.748;2023-08-30T08:53:21;0.80;;;0.50;;
49175;SDS011;35012;47.200;9.748;2023-08-30T08:55:46;1.27;;;0.50;;
49175;SDS011;35012;47.200;9.748;2023-08-30T08:58:12;0.80;;;0.40;;
49175;SDS011;35012;47.200;9.748;2023-08-30T09:00:38;1.10;;;0.50;;
49175;SDS011;35012;47.200;9.748;2023-08-30T09:03:04;1.27;;;0.60;;
49175;SDS011;35012;47.200;9.748;2023-08-30T09:05:30;1.33;;;0.60;;
49175;SDS011;35012;47.200;9.748;2023-08-30T09:07:56;0.93;;;0.53;;
49175;SDS011;35012;47.200;9.748;2023-08-30T09:10:21;1.37;;;0.47;;
49175;SDS011;35012;47.200;9.748;2023-08-30T09:12:47;0.93;;;0.50;;
49175;SDS011;35012;47.200;9.748;2023-08-30T09:15:13;1.33;;;0.83;;
49175;SDS011;35012;47.200;9.748;2023-08-30T09:17:40;1.10;;;0.43;;
49175;SDS011;35012;47.200;9.748;2023-08-30T09:20:09;1.17;;;0.60;;
49175;SDS011;35012;47.200;9.748;2023-08-30T09:22:37;0.60;;;0.50;;
49175;SDS011;35012;47.200;9.748;2023-08-30T09:25:04;1.30;;;0.60;;
49175;SDS011;35012;47.200;9.748;2023-08-30T09:27:33;1.07;;;0.33;;
49175;SDS011;35012;47.200;9.748;2023-08-30T09:29:59;0.93;;;0.50;;
49175;SDS011;35012;47.200;9.748;2023-08-30T09:32:25;0.93;;;0.37;;
49175;SDS011;35012;47.200;9.748;2023-08-30T09:34:50;0.50;;;0.40;;
49175;SDS011;35012;47.200;9.748;2023-08-30T09:37:22;0.77;;;0.53;;
49175;SDS011;35012;47.200;9.748;2023-08-30T09:39:48;1.27;;;0.50;;
49175;SDS011;35012;47.200;9.748;2023-08-30T09:42:17;1.07;;;0.60;;
49175;SDS011;35012;47.200;9.748;2023-08-30T09:44:43;1.20;;;0.50;;
49175;SDS011;35012;47.200;9.748;2023-08-30T09:47:09;1.37;;;0.50;;
49175;SDS011;35012;47.200;9.748;2023-08-30T09:49:38;0.77;;;0.50;;
49175;SDS011;35012;47.200;9.748;2023-08-30T09:52:08;1.13;;;0.60;;
49175;SDS011;35012;47.200;9.748;2023-08-30T09:54:34;0.50;;;0.40;;
49175;SDS011;35012;47.200;9.748;2023-08-30T09:57:03;0.50;;;0.40;;
49175;SDS011;35012;47.200;9.748;2023-08-30T09:59:29;1.10;;;0.40;;
49175;SDS011;35012;47.200;9.748;2023-08-30T10:01:55;0.70;;;0.40;;
49175;SDS011;35012;47.200;9.748;2023-08-30T10:04:22;0.67;;;0.40;;
49175;SDS011;35012;47.200;9.748;2023-08-30T10:06:48;0.57;;;0.50;;
49175;SDS011;35012;47.200;9.748;2023-08-30T10:09:14;0.57;;;0.40;;
49175;SDS011;35012;47.200;9.748;2023-08-30T10:11:40;0.77;;;0.50;;
49175;SDS011;35012;47.200;9.748;2023-08-30T10:14:06;0.60;;;0.53;;
49175;SDS011;35012;47.200;9.748;2023-08-30T10:16:42;0.70;;;0.50;;
49175;SDS011;35012;47.200;9.748;2023-08-30T10:19:32;1.17;;;0.50;;
49175;SDS011;35012;47.200;9.748;2023-08-30T10:22:00;1.27;;;0.43;;
49175;SDS011;35012;47.200;9.748;2023-08-30T10:24:28;0.90;;;0.40;;
49175;SDS011;35012;47.200;9.748;2023-08-30T10:26:55;0.70;;;0.53;;
49175;SDS011;35012;47.200;9.748;2023-08-30T10:29:21;1.00;;;0.60;;
49175;SDS011;35012;47.200;9.748;2023-08-30T10:31:48;0.70;;;0.70;;
49175;SDS011;35012;47.200;9.748;2023-08-30T10:34:14;0.97;;;0.60;;
49175;SDS011;35012;47.200;9.748;2023-08-30T10:36:44;1.77;;;0.83;;
49175;SDS011;35012;47.200;9.748;2023-08-30T10:39:13;0.97;;;0.57;;
49175;SDS011;35012;47.200;9.748;2023-08-30T10:41:55;1.33;;;0.70;;
49175;SDS011;35012;47.200;9.748;2023-08-30T10:44:26;0.73;;;0.70;;
49175;SDS011;35012;47.200;9.748;2023-08-30T10:46:55;1.73;;;0.70;;
49175;SDS011;35012;47.200;9.748;2023-08-30T10:49:21;2.10;;;0.87;;
49175;SDS011;35012;47.200;9.748;2023-08-30T10:51:54;1.57;;;0.60;;
49175;SDS011;35012;47.200;9.748;2023-08-30T10:54:21;1.07;;;0.70;;
49175;SDS011;35012;47.200;9.748;2023-08-30T10:59:20;0.77;;;0.60;;
49175;SDS011;35012;47.200;9.748;2023-08-30T11:01:47;0.90;;;0.63;;
49175;SDS011;35012;47.200;9.748;2023-08-30T11:04:14;2.10;;;0.83;;
49175;SDS011;35012;47.200;9.748;2023-08-30T11:06:46;3.27;;;0.80;;
49175;SDS011;35012;47.200;9.748;2023-08-30T11:09:13;1.00;;;0.70;;
49175;SDS011;35012;47.200;9.748;2023-08-30T11:11:39;1.30;;;0.73;;
49175;SDS011;35012;47.200;9.748;2023-08-30T11:14:08;0.80;;;0.70;;
49175;SDS011;35012;47.200;9.748;2023-08-30T11:16:36;0.83;;;0.70;;
49175;SDS011;35012;47.200;9.748;2023-08-30T11:19:03;1.17;;;0.73;;
49175;SDS011;35012;47.200;9.748;2023-08-30T11:21:30;1.20;;;0.87;;
49175;SDS011;35012;47.200;9.748;2023-08-30T11:23:56;1.73;;;0.53;;
49175;SDS011;35012;47.200;9.748;2023-08-30T11:26:21;0.73;;;0.60;;
49175;SDS011;35012;47.200;9.748;2023-08-30T11:28:47;3.23;;;0.70;;
49175;SDS011;35012;47.200;9.748;2023-08-30T11:31:23;0.60;;;0.40;;
49175;SDS011;35012;47.200;9.748;2023-08-30T11:33:53;1.77;;;0.40;;
49175;SDS011;35012;47.200;9.748;2023-08-30T11:36:20;1.10;;;0.57;;
49175;SDS011;35012;47.200;9.748;2023-08-30T11:38:56;0.60;;;0.50;;
49175;SDS011;35012;47.200;9.748;2023-08-30T11:41:25;0.50;;;0.50;;
49175;SDS011;35012;47.200;9.748;2023-08-30T11:43:51;1.52;;;0.52;;
49175;SDS011;35012;47.200;9.748;2023-08-30T11:46:17;0.77;;;0.50;;
49175;SDS011;35012;47.200;9.748;2023-08-30T11:48:43;0.63;;;0.50;;
49175;SDS011;35012;47.200;9.748;2023-08-30T11:51:10;0.98;;;0.55;;
49175;SDS011;35012;47.200;9.748;2023-08-30T11:53:36;0.70;;;0.57;;
49175;SDS011;35012;47.200;9.748;2023-08-30T11:56:02;1.58;;;0.65;;
49175;SDS011;35012;47.200;9.748;2023-08-30T11:58:31;2.30;;;0.50;;
49175;SDS011;35012;47.200;9.748;2023-08-30T12:00:58;1.67;;;0.60;;
49175;SDS011;35012;47.200;9.748;2023-08-30T12:03:25;1.17;;;0.50;;
49175;SDS011;35012;47.200;9.748;2023-08-30T12:05:51;0.70;;;0.60;;
49175;SDS011;35012;47.200;9.748;2023-08-30T12:08:17;0.87;;;0.60;;
49175;SDS011;35012;47.200;9.748;2023-08-30T12:10:49;0.73;;;0.60;;
49175;SDS011;35012;47.200;9.748;2023-08-30T12:13:24;1.70;;;0.60;;
49175;SDS011;35012;47.200;9.748;2023-08-30T12:15:55;1.00;;;0.70;;
49175;SDS011;35012;47.200;9.748;2023-08-30T12:18:28;1.27;;;0.67;;
49175;SDS011;35012;47.200;9.748;2023-08-30T12:23:20;2.80;;;0.90;;
49175;SDS011;35012;47.200;9.748;2023-08-30T12:28:31;1.10;;;0.70;;
49175;SDS011;35012;47.200;9.748;2023-08-30T12:30:58;0.93;;;0.70;;
49175;SDS011;35012;47.200;9.748;2023-08-30T12:33:24;0.70;;;0.60;;
49175;SDS011;35012;47.200;9.748;2023-08-30T12:35:56;1.13;;;0.70;;
49175;SDS011;35012;47.200;9.748;2023-08-30T12:38:22;0.50;;;0.50;;
49175;SDS011;35012;47.200;9.748;2023-08-30T12:40:49;1.17;;;0.80;;
49175;SDS011;35012;47.200;9.748;2023-08-30T12:43:16;0.95;;;0.47;;
49175;SDS011;35012;47.200;9.748;2023-08-30T12:45:42;0.77;;;0.60;;
49175;SDS011;35012;47.200;9.748;2023-08-30T12:48:09;0.85;;;0.65;;
49175;SDS011;35012;47.200;9.748;2023-08-30T12:50:41;1.65;;;0.68;;
49175;SDS011;35012;47.200;9.748;2023-08-30T12:53:13;0.98;;;0.75;;
49175;SDS011;35012;47.200;9.748;2023-08-30T12:55:38;1.17;;;0.60;;
49175;SDS011;35012;47.200;9.748;2023-08-30T12:58:06;0.95;;;0.73;;
49175;SDS011;35012;47.200;9.748;2023-08-30T13:00:31;1.50;;;0.73;;
49175;SDS011;35012;47.200;9.748;2023-08-30T13:02:58;1.00;;;0.87;;
49175;SDS011;35012;47.200;9.748;2023-08-30T13:05:23;1.10;;;0.70;;
49175;SDS011;35012;47.200;9.748;2023-08-30T13:07:49;0.83;;;0.80;;
49175;SDS011;35012;47.200;9.748;2023-08-30T13:10:14;1.17;;;0.80;;
49175;SDS011;35012;47.200;9.748;2023-08-30T13:12:40;1.87;;;0.70;;
49175;SDS011;35012;47.200;9.748;2023-08-30T13:15:05;2.13;;;0.90;;
49175;SDS011;35012;47.200;9.748;2023-08-30T13:17:31;1.42;;;0.85;;
49175;SDS011;35012;47.200;9.748;2023-08-30T13:19:57;1.13;;;0.85;;
49175;SDS011;35012;47.200;9.748;2023-08-30T13:22:23;0.95;;;0.80;;
49175;SDS011;35012;47.200;9.748;2023-08-30T13:24:52;1.27;;;0.70;;
49175;SDS011;35012;47.200;9.748;2023-08-30T13:27:17;2.57;;;0.97;;
49175;SDS011;35012;47.200;9.748;2023-08-30T13:29:43;1.30;;;1.00;;
49175;SDS011;35012;47.200;9.748;2023-08-30T13:32:09;2.13;;;1.07;;
49175;SDS011;35012;47.200;9.748;2023-08-30T13:34:34;1.63;;;1.07;;
49175;SDS011;35012;47.200;9.748;2023-08-30T13:36:59;1.97;;;1.00;;
49175;SDS011;35012;47.200;9.748;2023-08-30T13:39:25;1.00;;;0.80;;
49175;SDS011;35012;47.200;9.748;2023-08-30T13:41:50;2.57;;;1.07;;
49175;SDS011;35012;47.200;9.748;2023-08-30T13:44:16;1.87;;;1.03;;
49175;SDS011;35012;47.200;9.748;2023-08-30T13:46:43;1.30;;;0.90;;
49175;SDS011;35012;47.200;9.748;2023-08-30T13:49:08;2.60;;;1.10;;
49175;SDS011;35012;47.200;9.748;2023-08-30T13:51:34;1.33;;;1.17;;
49175;SDS011;35012;47.200;9.748;2023-08-30T13:54:01;1.40;;;1.00;;
49175;SDS011;35012;47.200;9.748;2023-08-30T13:56:26;2.77;;;1.17;;
49175;SDS011;35012;47.200;9.748;2023-08-30T13:58:52;2.93;;;1.30;;
49175;SDS011;35012;47.200;9.748;2023-08-30T14:01:17;1.50;;;1.00;;
49175;SDS011;35012;47.200;9.748;2023-08-30T14:03:43;1.43;;;1.33;;
49175;SDS011;35012;47.200;9.748;2023-08-30T14:06:08;3.50;;;1.03;;
49175;SDS011;35012;47.200;9.748;2023-08-30T14:08:34;1.50;;;1.37;;
49175;SDS011;35012;47.200;9.748;2023-08-30T14:11:00;1.13;;;1.03;;
49175;SDS011;35012;47.200;9.748;2023-08-30T14:13:25;4.60;;;1.30;;
49175;SDS011;35012;47.200;9.748;2023-08-30T14:15:53;1.43;;;1.23;;
49175;SDS011;35012;47.200;9.748;2023-08-30T14:18:18;2.67;;;1.27;;
49175;SDS011;35012;47.200;9.748;2023-08-30T14:20:44;2.33;;;1.37;;
49175;SDS011;35012;47.200;9.748;2023-08-30T14:23:09;2.40;;;1.30;;
49175;SDS011;35012;47.200;9.748;2023-08-30T14:25:35;3.50;;;1.27;;
49175;SDS011;35012;47.200;9.748;2023-08-30T14:28:01;2.63;;;1.20;;
49175;SDS011;35012;47.200;9.748;2023-08-30T14:30:27;3.03;;;1.30;;
49175;SDS011;35012;47.200;9.748;2023-08-30T14:32:53;1.83;;;1.10;;
49175;SDS011;35012;47.200;9.748;2023-08-30T14:35:18;1.70;;;1.50;;
49175;SDS011;35012;47.200;9.748;2023-08-30T14:37:49;1.63;;;1.10;;
49175;SDS011;35012;47.200;9.748;2023-08-30T14:40:15;1.10;;;1.00;;
49175;SDS011;35012;47.200;9.748;2023-08-30T14:42:41;4.30;;;1.20;;
49175;SDS011;35012;47.200;9.748;2023-08-30T14:45:06;5.33;;;1.30;;
49175;SDS011;35012;47.200;9.748;2023-08-30T14:47:32;2.40;;;1.20;;
49175;SDS011;35012;47.200;9.748;2023-08-30T14:49:58;1.73;;;1.10;;
49175;SDS011;35012;47.200;9.748;2023-08-30T14:52:24;2.27;;;1.60;;
49175;SDS011;35012;47.200;9.748;2023-08-30T14:54:49;1.70;;;1.37;;
49175;SDS011;35012;47.200;9.748;2023-08-30T14:57:15;1.53;;;1.23;;
49175;SDS011;35012;47.200;9.748;2023-08-30T14:59:40;1.53;;;1.07;;